Time;durP1;ratioP1;P1;durP2;ratioP2;P2;SDS_P1;SDS_P2;PMS_P1;PMS_P2;Temp;Humidity;BMP_temperature;BMP_pressure;BME280_temperature;BME280_humidity;BME280_pressure;Samples;Min_cycle;Max_cycle;Signal;HPM_P1;HPM_P2
2022/04/11 00:01:40;;;;;;;5.60;2.33;;;5.70;99.90;6.80;98159.00;;;;4631949;30;87614;-62
2022/04/11 00:04:06;;;;;;;2.85;2.20;;;5.70;99.90;6.80;98169.00;;;;4633852;30;87117;-60
2022/04/11 00:06:32;;;;;;;4.32;2.45;;;5.70;99.90;6.80;98169.00;;;;4632559;30;87891;-60
2022/04/11 00:08:58;;;;;;;4.80;2.55;;;5.70;99.90;6.80;98166.00;;;;4633968;30;87592;-60
2022/04/11 00:11:24;;;;;;;6.68;3.30;;;5.70;99.90;6.80;98166.00;;;;4636890;30;87461;-62
2022/04/11 00:13:50;;;;;;;6.15;3.25;;;5.70;99.90;6.80;98171.00;;;;4641196;30;87035;-61
2022/04/11 00:16:16;;;;;;;5.75;3.63;;;5.70;99.90;6.70;98168.00;;;;4590403;30;1343963;-60
2022/04/11 00:18:42;;;;;;;10.00;3.72;;;5.70;99.90;6.80;98172.00;;;;4634725;30;87771;-61
2022/04/11 00:21:08;;;;;;;12.45;5.07;;;5.70;99.90;6.80;98165.00;;;;4633633;30;87972;-61
2022/04/11 00:23:34;;;;;;;9.05;5.10;;;5.70;99.90;6.80;98168.00;;;;4633740;30;87020;-61
2022/04/11 00:26:01;;;;;;;8.27;5.90;;;5.70;99.90;6.80;98168.00;;;;4634311;30;88009;-60
2022/04/11 00:28:27;;;;;;;9.40;5.25;;;5.70;99.90;6.70;98168.00;;;;4634188;30;87036;-61
2022/04/11 00:30:53;;;;;;;8.48;6.13;;;5.70;99.90;6.70;98166.00;;;;4633468;30;88052;-61
2022/04/11 00:33:19;;;;;;;6.55;4.75;;;5.60;99.90;6.70;98172.00;;;;4634741;30;87495;-63
2022/04/11 00:35:46;;;;;;;9.85;3.80;;;5.60;99.90;6.70;98167.00;;;;4634719;30;87520;-62
2022/04/11 00:38:12;;;;;;;7.30;4.20;;;5.60;99.90;6.70;98159.00;;;;4634398;30;88455;-62
2022/04/11 00:40:39;;;;;;;7.18;4.10;;;5.50;99.90;6.60;98159.00;;;;4634504;30;88400;-63
2022/04/11 00:43:05;;;;;;;7.20;3.53;;;5.50;99.90;6.50;98153.00;;;;4634451;30;87063;-61
2022/04/11 00:45:32;;;;;;;8.05;3.42;;;5.50;99.90;6.50;98156.00;;;;4634565;30;87083;-61
2022/04/11 00:47:58;;;;;;;8.13;3.58;;;5.50;99.90;6.40;98156.00;;;;4634855;30;86944;-61
2022/04/11 00:50:24;;;;;;;5.85;3.30;;;5.40;99.90;6.40;98155.00;;;;4634220;30;87050;-61
2022/04/11 00:52:54;;;;;;;4.22;3.03;;;5.40;99.90;6.40;98160.00;;;;4634570;30;86999;-60
2022/04/11 00:55:23;;;;;;;7.45;3.28;;;5.40;99.90;6.40;98158.00;;;;4632195;30;88303;-59
2022/04/11 00:57:49;;;;;;;6.00;3.00;;;5.40;99.90;6.40;98159.00;;;;4634093;30;87552;-62
2022/04/11 01:00:16;;;;;;;4.65;3.08;;;5.30;99.90;6.30;98163.00;;;;4634284;30;88475;-62
2022/04/11 01:02:42;;;;;;;4.93;3.03;;;5.30;99.90;6.30;98162.00;;;;4633427;30;87242;-62
2022/04/11 01:05:11;;;;;;;5.50;2.90;;;5.30;99.90;6.30;98161.00;;;;4632090;30;87091;-62
2022/04/11 01:07:40;;;;;;;7.88;3.08;;;5.30;99.90;6.30;98153.00;;;;4633711;30;87740;-62
2022/04/11 01:10:08;;;;;;;5.53;3.45;;;5.30;99.90;6.30;98156.00;;;;4634116;30;88305;-62
2022/04/11 01:12:34;;;;;;;5.85;3.47;;;5.30;99.90;6.30;98162.00;;;;4635068;30;86359;-61
2022/04/11 01:15:01;;;;;;;7.03;3.80;;;5.30;99.90;6.30;98174.00;;;;4633653;30;87615;-61
2022/04/11 01:17:35;;;;;;;4.70;3.08;;;5.30;99.90;6.30;98170.00;;;;4632711;30;87861;-62
2022/04/11 01:20:12;;;;;;;5.35;3.00;;;5.30;99.90;6.20;98169.00;;;;4644672;30;88045;-62
2022/04/11 01:22:41;;;;;;;3.95;2.42;;;5.30;99.90;6.20;98170.00;;;;4631969;30;87123;-62
2022/04/11 01:25:08;;;;;;;4.72;2.20;;;5.20;99.90;6.20;98159.00;;;;4633728;30;87128;-62
2022/04/11 01:27:38;;;;;;;4.75;2.17;;;5.10;99.90;6.10;98164.00;;;;4646739;30;87738;-63
2022/04/11 01:30:06;;;;;;;3.83;1.85;;;5.10;99.90;6.00;98165.00;;;;4633518;30;88662;-63
2022/04/11 01:32:38;;;;;;;3.25;2.13;;;5.10;99.90;6.00;98159.00;;;;4646538;30;87523;-62
2022/04/11 01:35:20;;;;;;;3.63;2.05;;;5.10;99.90;6.00;98163.00;;;;4632573;30;87159;-62
2022/04/11 01:37:46;;;;;;;3.50;2.08;;;5.00;99.90;6.00;98162.00;;;;4633185;30;87059;-62
2022/04/11 01:40:13;;;;;;;4.40;2.35;;;5.00;99.90;6.00;98168.00;;;;4632955;30;86985;-62
2022/04/11 01:42:39;;;;;;;5.45;2.33;;;5.00;99.90;6.00;98168.00;;;;4633990;30;87115;-61
2022/04/11 01:45:09;;;;;;;4.43;2.33;;;5.00;99.90;6.10;98156.00;;;;4632996;30;88539;-61
2022/04/11 01:47:38;;;;;;;5.50;2.70;;;5.00;99.90;6.00;98158.00;;;;4632624;30;87367;-62
2022/04/11 01:50:07;;;;;;;5.82;2.70;;;5.10;99.90;6.10;98160.00;;;;4633548;30;87532;-63
2022/04/11 01:52:33;;;;;;;3.95;2.70;;;5.10;99.90;6.10;98162.00;;;;4633685;30;87000;-63
2022/04/11 01:55:04;;;;;;;5.30;2.88;;;5.10;99.90;6.10;98163.00;;;;4632360;30;87215;-63
2022/04/11 01:57:32;;;;;;;4.70;2.92;;;5.00;99.90;6.10;98156.00;;;;4615791;30;87731;-63
2022/04/11 01:59:58;;;;;;;3.90;2.70;;;5.10;99.90;6.10;98153.00;;;;4632621;30;87301;-63
2022/04/11 02:02:24;;;;;;;7.18;3.05;;;5.10;99.90;6.10;98157.00;;;;4632820;30;86586;-63
2022/04/11 02:04:51;;;;;;;7.70;3.20;;;5.10;99.90;6.10;98160.00;;;;4632444;30;87317;-63
2022/04/11 02:07:17;;;;;;;7.85;3.30;;;5.10;99.90;6.10;98157.00;;;;4632314;30;87123;-57
2022/04/11 02:09:44;;;;;;;6.40;3.20;;;5.10;99.90;6.10;98145.00;;;;4632057;30;87968;-63
2022/04/11 02:12:10;;;;;;;7.45;3.60;;;5.10;99.90;6.10;98151.00;;;;4632948;30;87335;-63
2022/04/11 02:14:37;;;;;;;6.47;3.40;;;5.00;99.90;6.10;98147.00;;;;4648104;30;87067;-63
2022/04/11 02:17:03;;;;;;;7.05;3.78;;;5.00;99.90;6.00;98150.00;;;;4649019;30;87839;-63
2022/04/11 02:19:29;;;;;;;7.13;3.83;;;5.00;99.90;6.00;98153.00;;;;4634966;30;87297;-62
2022/04/11 02:21:55;;;;;;;4.50;3.40;;;5.00;99.90;6.00;98149.00;;;;4630991;30;86994;-61
2022/04/11 02:24:21;;;;;;;7.85;3.80;;;5.00;99.90;6.00;98146.00;;;;4633942;30;87032;-61
2022/04/11 02:26:48;;;;;;;6.68;3.67;;;5.00;99.90;6.00;98154.00;;;;4631342;30;86890;-58
2022/04/11 02:29:14;;;;;;;7.75;3.80;;;4.90;99.90;5.90;98140.00;;;;4631778;30;87081;-60
2022/04/11 02:31:40;;;;;;;8.20;3.35;;;4.90;99.90;5.90;98131.00;;;;4631318;30;87014;-58
2022/04/11 02:34:06;;;;;;;6.18;3.53;;;4.90;99.90;5.80;98138.00;;;;4631506;30;88105;-63
2022/04/11 02:36:32;;;;;;;5.28;3.53;;;4.80;99.90;5.80;98146.00;;;;4631436;30;87622;-62
2022/04/11 02:38:59;;;;;;;6.30;3.60;;;4.80;99.90;5.80;98133.00;;;;4631559;30;87600;-63
2022/04/11 02:41:26;;;;;;;5.50;3.35;;;4.80;99.90;5.80;98135.00;;;;4632144;30;86971;-63
2022/04/11 02:43:52;;;;;;;6.63;3.63;;;4.80;99.90;5.80;98133.00;;;;4633142;30;86946;-63
2022/04/11 02:46:20;;;;;;;4.82;3.58;;;4.80;99.90;5.80;98133.00;;;;4617946;30;88037;-63
2022/04/11 02:48:47;;;;;;;8.20;3.85;;;4.80;99.90;5.70;98130.00;;;;4625578;30;87511;-62
2022/04/11 02:51:20;;;;;;;5.40;3.42;;;4.80;99.90;5.60;98121.00;;;;4632684;30;86341;-60
2022/04/11 02:53:51;;;;;;;7.32;3.60;;;4.80;99.90;5.70;98118.00;;;;4628372;30;87049;-59
2022/04/11 02:56:17;;;;;;;8.60;3.67;;;4.80;99.90;5.70;98125.00;;;;4630966;30;87698;-59
2022/04/11 02:58:44;;;;;;;7.15;3.65;;;4.80;99.90;5.80;98117.00;;;;4630874;30;88527;-58
2022/04/11 03:01:11;;;;;;;5.90;2.92;;;4.80;99.90;5.80;98131.00;;;;4632120;30;87567;-59
2022/04/11 03:03:41;;;;;;;4.78;3.35;;;4.80;99.90;5.80;98133.00;;;;4617505;30;87144;-59
2022/04/11 03:06:07;;;;;;;8.40;3.63;;;4.80;99.90;5.80;98143.00;;;;4631566;30;87780;-59
2022/04/11 03:08:34;;;;;;;4.07;3.05;;;4.80;99.90;5.80;98152.00;;;;4630867;30;87365;-63
2022/04/11 03:11:02;;;;;;;7.63;3.42;;;4.90;99.90;5.80;98147.00;;;;4631842;30;86998;-62
2022/04/11 03:13:30;;;;;;;6.15;3.60;;;4.90;99.90;5.80;98139.00;;;;4631459;30;87218;-62
2022/04/11 03:15:56;;;;;;;7.40;3.63;;;4.90;99.90;5.80;98134.00;;;;4631613;30;86397;-62
2022/04/11 03:18:22;;;;;;;6.60;3.72;;;4.80;99.90;5.80;98140.00;;;;4630908;30;88672;-63
2022/04/11 03:20:49;;;;;;;6.90;3.95;;;4.90;99.90;5.80;98138.00;;;;4630949;30;87113;-62
2022/04/11 03:23:16;;;;;;;7.88;3.40;;;4.90;99.90;5.80;98147.00;;;;4643936;30;88231;-62
2022/04/11 03:25:45;;;;;;;4.45;3.20;;;4.90;99.90;5.80;98150.00;;;;4633959;30;87631;-62
2022/04/11 03:28:17;;;;;;;6.45;3.40;;;4.90;99.90;5.80;98143.00;;;;4631022;30;87313;-62
2022/04/11 03:30:44;;;;;;;5.32;3.13;;;4.90;99.90;5.70;98144.00;;;;4632114;30;87599;-62
2022/04/11 03:33:11;;;;;;;4.05;2.97;;;4.80;99.90;5.70;98125.00;;;;4631640;30;87207;-63
2022/04/11 03:35:38;;;;;;;4.28;2.90;;;4.80;99.90;5.80;98124.00;;;;4630832;30;87567;-56
2022/04/11 03:38:05;;;;;;;4.55;2.55;;;4.80;99.90;5.70;98117.00;;;;4630611;30;88429;-61
2022/04/11 03:40:31;;;;;;;2.80;2.25;;;4.80;99.90;5.70;98113.00;;;;4617169;30;86612;-62
2022/04/11 03:43:03;;;;;;;4.63;2.60;;;4.80;99.90;5.70;98115.00;;;;4634108;30;87337;-63
2022/04/11 03:45:29;;;;;;;3.65;2.38;;;4.80;99.90;5.70;98102.00;;;;4633839;30;87743;-63
2022/04/11 03:47:56;;;;;;;4.22;2.28;;;4.80;99.90;5.70;98114.00;;;;4633473;30;89835;-62
2022/04/11 03:50:26;;;;;;;3.47;2.17;;;4.80;99.90;5.80;98108.00;;;;4633968;30;87441;-62
2022/04/11 03:52:53;;;;;;;5.65;2.55;;;4.90;99.90;5.80;98106.00;;;;4634420;30;87057;-63
2022/04/11 03:55:19;;;;;;;3.45;2.20;;;4.90;99.90;5.80;98094.00;;;;4633019;30;87844;-62
2022/04/11 03:57:50;;;;;;;4.93;2.15;;;4.90;99.90;5.70;98085.00;;;;4633734;30;88441;-62
2022/04/11 04:00:17;;;;;;;7.32;1.95;;;4.90;99.90;5.70;98077.00;;;;4633646;30;86972;-62
2022/04/11 04:03:11;;;;;;;3.80;2.20;;;4.90;99.90;5.80;98073.00;;;;4648266;30;87057;-61
2022/04/11 04:05:44;;;;;;;4.75;2.28;;;4.90;99.90;5.80;98060.00;;;;4620590;30;86868;-62
2022/04/11 04:08:13;;;;;;;3.80;2.40;;;4.90;99.90;5.80;98059.00;;;;4619545;30;88643;-62
2022/04/11 04:10:48;;;;;;;5.65;2.67;;;4.90;99.90;5.80;98038.00;;;;4633798;30;87332;-62
2022/04/11 04:13:14;;;;;;;4.68;2.20;;;4.90;99.90;5.80;98055.00;;;;4622401;30;88059;-62
2022/04/11 04:15:41;;;;;;;7.38;2.63;;;4.90;99.90;5.80;98041.00;;;;4632803;30;88163;-63
2022/04/11 04:18:07;;;;;;;4.78;2.42;;;5.00;99.90;5.90;98044.00;;;;4633438;30;87439;-62
2022/04/11 04:20:34;;;;;;;6.90;2.90;;;5.00;99.90;6.00;98054.00;;;;4632702;30;87318;-63
2022/04/11 04:23:03;;;;;;;10.55;3.22;;;5.10;99.90;6.10;98063.00;;;;4631925;30;87768;-63
2022/04/11 04:25:36;;;;;;;5.68;2.80;;;5.10;99.90;6.00;98057.00;;;;4632724;30;87772;-63
2022/04/11 04:28:04;;;;;;;4.80;3.08;;;5.10;99.90;5.90;98054.00;;;;4633535;30;87406;-63
2022/04/11 04:30:33;;;;;;;7.70;3.58;;;5.10;99.90;5.90;98050.00;;;;4633793;30;86547;-63
2022/04/11 04:33:00;;;;;;;6.38;3.55;;;5.00;99.90;5.80;98061.00;;;;4633695;30;87151;-63
2022/04/11 04:35:27;;;;;;;6.53;3.85;;;4.90;99.90;5.80;98049.00;;;;4633225;30;88490;-63
2022/04/11 04:37:55;;;;;;;8.23;3.65;;;4.90;99.90;5.70;98028.00;;;;4632526;30;88844;-64
2022/04/11 04:40:22;;;;;;;6.43;4.40;;;4.80;99.90;5.70;98013.00;;;;4619387;30;87019;-64
2022/04/11 04:42:51;;;;;;;5.10;3.97;;;4.80;99.90;5.70;98004.00;;;;4632874;30;87044;-63
2022/04/11 04:45:19;;;;;;;10.80;4.30;;;4.80;99.90;5.70;97986.00;;;;4633006;30;87514;-63
2022/04/11 04:48:06;;;;;;;6.97;4.47;;;4.80;99.90;5.70;97978.00;;;;4636092;30;87506;-63
2022/04/11 04:50:35;;;;;;;6.72;3.95;;;4.80;99.90;5.70;97983.00;;;;4630637;30;86906;-64
2022/04/11 04:53:03;;;;;;;10.40;4.72;;;4.80;99.90;5.70;97975.00;;;;4631637;30;86993;-63
2022/04/11 04:55:30;;;;;;;8.32;4.47;;;4.80;99.90;5.70;97955.00;;;;4635585;30;87105;-63
2022/04/11 04:57:56;;;;;;;8.15;4.35;;;4.80;99.90;5.70;97943.00;;;;4633401;30;87386;-64
2022/04/11 05:00:23;;;;;;;6.07;4.07;;;4.90;99.90;5.90;97948.00;;;;4633069;30;86962;-63
2022/04/11 05:02:50;;;;;;;7.45;4.05;;;5.00;99.90;5.90;97947.00;;;;4631999;30;87925;-63
2022/04/11 05:05:22;;;;;;;7.88;3.75;;;5.00;99.90;5.90;97935.00;;;;4634199;30;87712;-63
2022/04/11 05:07:50;;;;;;;5.35;3.50;;;5.00;99.90;5.90;97938.00;;;;4634189;30;88374;-63
2022/04/11 05:10:20;;;;;;;11.30;3.88;;;5.00;99.90;5.70;97942.00;;;;4632779;30;87044;-63
2022/04/11 05:12:49;;;;;;;7.53;4.40;;;4.90;99.90;5.60;97946.00;;;;4657014;30;87035;-62
2022/04/11 05:15:16;;;;;;;5.72;3.97;;;4.80;99.90;5.50;97964.00;;;;4632268;30;87121;-63
2022/04/11 05:17:46;;;;;;;7.47;4.22;;;4.70;99.90;5.50;97970.00;;;;4632919;30;88597;-62
2022/04/11 05:20:15;;;;;;;7.53;4.30;;;4.70;99.90;5.50;97978.00;;;;4635160;30;86406;-62
2022/04/11 05:22:42;;;;;;;6.63;4.20;;;4.70;99.90;5.50;97964.00;;;;4630726;30;87410;-65
2022/04/11 05:25:09;;;;;;;5.05;3.88;;;4.70;99.90;5.60;97956.00;;;;4632724;30;87617;-63
2022/04/11 05:27:35;;;;;;;10.80;4.53;;;4.70;99.90;5.50;97941.00;;;;4631214;30;88044;-62
2022/04/11 05:30:05;;;;;;;8.10;4.32;;;4.60;99.90;5.50;97916.00;;;;4631825;30;87661;-64
2022/04/11 05:32:33;;;;;;;6.95;3.97;;;4.60;99.90;5.50;97923.00;;;;4633633;30;86987;-64
2022/04/11 05:35:00;;;;;;;8.73;4.57;;;4.60;99.90;5.30;97930.00;;;;4631390;30;87521;-63
2022/04/11 05:37:26;;;;;;;10.35;4.78;;;4.50;99.90;5.30;97920.00;;;;4632907;30;87449;-64
2022/04/11 05:39:53;;;;;;;7.25;4.30;;;4.50;99.90;5.30;97916.00;;;;4632312;30;87036;-62
2022/04/11 05:42:22;;;;;;;6.65;4.20;;;4.50;99.90;5.30;97899.00;;;;4632541;30;87030;-62
2022/04/11 05:44:48;;;;;;;6.32;4.13;;;4.50;99.90;5.30;97894.00;;;;4633196;30;87018;-63
2022/04/11 05:47:14;;;;;;;6.97;4.38;;;4.50;99.90;5.30;97879.00;;;;4632402;30;87725;-63
2022/04/11 05:49:48;;;;;;;6.88;3.85;;;4.50;99.90;5.10;97864.00;;;;4631830;30;87725;-62
2022/04/11 05:52:16;;;;;;;8.10;5.15;;;4.40;99.90;5.00;97863.00;;;;4633119;30;87986;-63
2022/04/11 05:54:43;;;;;;;6.60;4.35;;;4.40;99.90;5.00;97836.00;;;;4631614;30;87721;-63
2022/04/11 05:57:09;;;;;;;8.55;4.88;;;4.30;99.90;5.10;97843.00;;;;4632875;30;87308;-64
2022/04/11 05:59:36;;;;;;;8.35;5.65;;;4.40;99.90;5.10;97835.00;;;;4632038;30;87103;-63
2022/04/11 06:02:03;;;;;;;9.75;5.88;;;4.40;99.90;5.10;97826.00;;;;4625172;30;87388;-63
2022/04/11 06:04:29;;;;;;;6.90;5.60;;;4.40;99.90;5.10;97813.00;;;;4630179;30;87555;-64
2022/04/11 06:06:56;;;;;;;11.90;6.35;;;4.40;99.90;5.00;97847.00;;;;4632158;30;87236;-63
2022/04/11 06:09:22;;;;;;;8.77;6.65;;;4.30;99.90;5.10;97812.00;;;;4633506;30;86352;-62
2022/04/11 06:11:49;;;;;;;9.45;6.32;;;4.30;99.90;5.10;97827.00;;;;4645661;30;87235;-62
2022/04/11 06:14:16;;;;;;;9.48;7.32;;;4.30;99.90;5.00;97839.00;;;;4644459;30;87625;-61
2022/04/11 06:16:43;;;;;;;10.88;7.75;;;4.30;99.90;4.90;97844.00;;;;4648285;30;88160;-63
2022/04/11 06:19:09;;;;;;;9.18;7.03;;;4.20;99.90;4.90;97843.00;;;;4641797;30;87010;-62
2022/04/11 06:21:35;;;;;;;8.98;7.95;;;4.20;99.90;4.90;97859.00;;;;4631211;30;87092;-62
2022/04/11 06:24:01;;;;;;;9.75;7.65;;;4.20;99.90;5.00;97884.00;;;;4632400;30;87754;-62
2022/04/11 06:26:27;;;;;;;12.18;7.85;;;4.20;99.90;5.00;97927.00;;;;4630788;30;88271;-62
2022/04/11 06:28:55;;;;;;;10.55;7.85;;;4.20;99.90;5.00;97970.00;;;;4631368;30;87147;-63
2022/04/11 06:31:21;;;;;;;11.45;8.23;;;4.30;99.90;5.10;98025.00;;;;4631444;30;86958;-63
2022/04/11 06:33:52;;;;;;;11.57;8.40;;;4.30;99.90;5.20;98065.00;;;;4632880;30;87836;-63
2022/04/11 06:36:21;;;;;;;12.85;9.35;;;4.40;99.90;5.20;98075.00;;;;4631052;30;87557;-63
2022/04/11 06:38:47;;;;;;;13.48;10.02;;;4.30;99.90;5.20;98083.00;;;;4633166;30;87432;-63
2022/04/11 06:41:14;;;;;;;13.77;10.98;;;4.30;99.90;5.20;98083.00;;;;4630730;30;87985;-63
2022/04/11 06:43:41;;;;;;;17.67;12.85;;;4.30;99.90;5.20;98084.00;;;;4631591;30;87783;-62
2022/04/11 06:46:18;;;;;;;13.85;11.48;;;4.30;99.90;5.10;98070.00;;;;4630767;30;87646;-63
2022/04/11 06:48:44;;;;;;;15.65;12.80;;;4.30;99.90;5.00;98050.00;;;;4627767;30;87949;-63
2022/04/11 06:51:11;;;;;;;15.30;12.90;;;4.10;99.90;4.80;98052.00;;;;4644904;30;87073;-64
2022/04/11 06:53:37;;;;;;;14.45;12.88;;;4.00;99.90;4.80;98028.00;;;;4631957;30;86953;-63
2022/04/11 06:56:04;;;;;;;13.35;11.68;;;4.00;99.90;4.80;98031.00;;;;4630659;30;88628;-63
2022/04/11 06:58:30;;;;;;;12.65;11.23;;;3.90;99.90;4.70;98015.00;;;;4630897;30;86365;-64
2022/04/11 07:00:56;;;;;;;10.57;9.48;;;3.90;99.90;4.80;98025.00;;;;4632154;30;86991;-65
2022/04/11 07:03:22;;;;;;;12.77;10.85;;;4.00;99.90;4.90;98024.00;;;;4631953;30;87820;-64
2022/04/11 07:05:48;;;;;;;11.90;9.95;;;4.00;99.90;4.90;98016.00;;;;4630559;30;88485;-63
2022/04/11 07:08:14;;;;;;;13.07;9.45;;;4.10;99.90;4.90;98017.00;;;;4632533;30;86927;-64
2022/04/11 07:10:43;;;;;;;13.07;9.25;;;4.10;99.90;4.90;97991.00;;;;4632835;30;87045;-62
2022/04/11 07:13:09;;;;;;;8.70;7.88;;;4.10;99.90;4.90;97989.00;;;;4641610;30;89196;-63
2022/04/11 07:15:36;;;;;;;10.68;9.27;;;4.00;99.90;4.80;97988.00;;;;4631931;30;87435;-62
2022/04/11 07:18:02;;;;;;;13.93;10.43;;;4.00;99.90;4.90;97959.00;;;;4634834;30;87026;-63
2022/04/11 07:20:28;;;;;;;11.23;10.13;;;4.00;99.90;4.90;97945.00;;;;4634611;30;87127;-64
2022/04/11 07:22:55;;;;;;;15.43;9.60;;;4.10;99.90;4.90;97969.00;;;;4633537;30;87019;-67
2022/04/11 07:25:24;;;;;;;10.85;9.73;;;4.00;99.90;4.90;97942.00;;;;4635417;30;89107;-65
2022/04/11 07:27:51;;;;;;;15.65;10.55;;;4.10;99.90;5.00;97931.00;;;;4619470;30;87075;-64
2022/04/11 07:30:18;;;;;;;10.40;9.30;;;4.10;99.90;4.90;97922.00;;;;4604750;30;88316;-64
2022/04/11 07:32:44;;;;;;;11.27;8.88;;;4.10;99.90;5.00;97916.00;;;;4637506;30;88128;-63
2022/04/11 07:35:10;;;;;;;12.82;10.02;;;4.20;99.90;5.10;97936.00;;;;4634073;30;87606;-64
2022/04/11 07:37:36;;;;;;;12.25;9.55;;;4.20;99.90;5.10;97919.00;;;;4633294;30;86990;-63
2022/04/11 07:40:03;;;;;;;10.45;9.35;;;4.20;99.90;5.10;97927.00;;;;4634091;30;87426;-64
2022/04/11 07:42:29;;;;;;;12.80;9.70;;;4.20;99.90;5.00;97925.00;;;;4634295;30;88773;-62
2022/04/11 07:44:56;;;;;;;11.32;10.13;;;4.20;99.90;4.90;97925.00;;;;4635301;30;87407;-63
2022/04/11 07:47:22;;;;;;;11.77;10.55;;;4.10;99.90;4.90;97909.00;;;;4634273;30;86320;-64
2022/04/11 07:49:48;;;;;;;13.43;12.13;;;4.10;99.90;4.90;97904.00;;;;4634391;30;87381;-63
2022/04/11 07:52:14;;;;;;;15.10;11.75;;;4.10;99.90;5.00;97894.00;;;;4632672;30;87598;-63
2022/04/11 07:54:40;;;;;;;13.68;10.80;;;4.10;99.90;5.00;97876.00;;;;4633829;30;87937;-62
2022/04/11 07:57:08;;;;;;;13.68;11.93;;;4.10;99.90;5.00;97892.00;;;;4633342;30;87505;-63
2022/04/11 07:59:34;;;;;;;12.88;11.60;;;4.10;99.90;5.00;97871.00;;;;4633858;30;87001;-62
2022/04/11 08:02:00;;;;;;;13.10;11.90;;;4.10;99.90;5.00;97872.00;;;;4632945;30;88473;-64
2022/04/11 08:04:27;;;;;;;13.93;12.60;;;4.10;99.90;5.00;97869.00;;;;4634110;30;88883;-62
2022/04/11 08:06:53;;;;;;;14.13;12.35;;;4.10;99.90;4.90;97886.00;;;;4634050;30;87042;-62
2022/04/11 08:09:19;;;;;;;13.85;12.48;;;4.10;99.90;4.90;97878.00;;;;4632998;30;87385;-62
2022/04/11 08:11:45;;;;;;;14.50;13.00;;;4.10;99.90;4.80;97875.00;;;;4634161;30;87080;-63
2022/04/11 08:14:11;;;;;;;13.95;12.75;;;4.10;99.90;4.90;97876.00;;;;4636092;30;87982;-63
2022/04/11 08:16:37;;;;;;;15.32;13.50;;;4.00;99.90;4.80;97879.00;;;;4633265;30;87003;-64
2022/04/11 08:19:04;;;;;;;14.60;12.82;;;4.00;99.90;4.80;97865.00;;;;4632476;30;88434;-64
2022/04/11 08:21:30;;;;;;;15.07;12.80;;;4.00;99.90;4.90;97862.00;;;;4631568;30;87783;-63
2022/04/11 08:23:56;;;;;;;13.73;12.32;;;4.00;99.90;4.80;97863.00;;;;4633149;30;87361;-62
2022/04/11 08:26:22;;;;;;;15.32;12.70;;;4.00;99.90;4.70;97871.00;;;;4631195;30;87260;-62
2022/04/11 08:28:48;;;;;;;14.00;12.68;;;4.00;99.90;4.80;97848.00;;;;4632032;30;88094;-64
2022/04/11 08:31:14;;;;;;;15.43;13.30;;;4.00;99.90;4.80;97858.00;;;;4633323;30;87729;-64
2022/04/11 08:33:41;;;;;;;13.32;12.02;;;4.10;99.90;4.70;97844.00;;;;4632572;30;87680;-62
2022/04/11 08:36:07;;;;;;;13.65;12.35;;;4.00;99.90;4.70;97851.00;;;;4634352;30;86226;-62
2022/04/11 08:38:33;;;;;;;14.15;12.00;;;4.00;99.90;4.80;97852.00;;;;4633070;30;87065;-64
2022/04/11 08:41:02;;;;;;;14.23;12.10;;;4.00;99.90;4.80;97857.00;;;;4633487;30;87026;-64
2022/04/11 08:43:32;;;;;;;13.80;12.30;;;4.00;99.90;4.70;97852.00;;;;4632784;30;88594;-63
2022/04/11 08:46:03;;;;;;;14.45;13.15;;;4.00;99.90;4.90;97858.00;;;;4633304;30;87087;-63
2022/04/11 08:48:30;;;;;;;12.82;11.63;;;4.10;99.90;4.90;97878.00;;;;4632075;30;87055;-62
2022/04/11 08:50:56;;;;;;;13.18;11.88;;;4.10;99.90;4.90;97889.00;;;;4633078;30;89073;-63
2022/04/11 08:53:23;;;;;;;15.35;12.38;;;4.10;99.90;4.90;97875.00;;;;4633730;30;87225;-63
2022/04/11 08:55:50;;;;;;;14.52;13.15;;;4.10;99.90;4.80;97872.00;;;;4632289;30;87071;-63
2022/04/11 08:58:17;;;;;;;15.20;13.80;;;4.00;99.90;4.90;97863.00;;;;4633376;30;87024;-63
2022/04/11 09:00:44;;;;;;;13.80;12.50;;;4.10;99.90;4.80;97865.00;;;;4633991;30;87088;-63
2022/04/11 09:03:10;;;;;;;11.75;10.55;;;4.00;99.90;4.90;97865.00;;;;4633208;30;87011;-63
2022/04/11 09:05:36;;;;;;;12.93;11.10;;;4.00;99.90;4.90;97852.00;;;;4633106;30;87009;-63
2022/04/11 09:08:03;;;;;;;11.95;10.75;;;4.00;99.90;4.80;97883.00;;;;4633064;30;88083;-63
2022/04/11 09:10:32;;;;;;;11.60;10.60;;;3.90;99.90;4.90;97919.00;;;;4632775;30;87880;-62
2022/04/11 09:13:01;;;;;;;10.48;9.30;;;4.00;99.90;4.90;97912.00;;;;4642582;30;88594;-63
2022/04/11 09:15:28;;;;;;;9.90;8.95;;;4.00;99.90;4.60;97936.00;;;;4632324;30;88786;-63
2022/04/11 09:17:57;;;;;;;9.90;8.90;;;3.90;99.90;4.50;97941.00;;;;4633904;30;87409;-63
2022/04/11 09:20:29;;;;;;;9.35;8.35;;;3.80;99.90;4.50;97936.00;;;;4632845;30;89756;-63
2022/04/11 09:22:56;;;;;;;9.73;8.60;;;3.70;99.90;4.50;97932.00;;;;4632225;30;87265;-64
2022/04/11 09:25:29;;;;;;;8.40;7.57;;;3.70;99.90;4.40;97927.00;;;;4632788;30;86716;-63
2022/04/11 09:28:07;;;;;;;9.43;8.55;;;3.70;99.90;4.40;97922.00;;;;4633779;30;87135;-63
2022/04/11 09:30:37;;;;;;;10.57;9.25;;;3.70;99.90;4.50;97946.00;;;;4632796;30;89859;-63
2022/04/11 09:33:09;;;;;;;10.15;8.27;;;3.70;99.90;4.40;97928.00;;;;4633062;30;88725;-63
2022/04/11 09:35:47;;;;;;;9.07;8.18;;;3.70;99.90;4.50;97933.00;;;;4632871;30;86899;-64
2022/04/11 09:38:15;;;;;;;9.85;7.72;;;3.70;99.90;4.60;97935.00;;;;4633604;30;86923;-64
2022/04/11 09:40:55;;;;;;;10.80;7.53;;;3.70;99.90;4.60;97957.00;;;;4617139;30;87756;-64
2022/04/11 09:43:33;;;;;;;8.35;7.40;;;3.80;99.90;4.60;97929.00;;;;4633406;30;88375;-63
2022/04/11 09:46:03;;;;;;;8.23;7.43;;;3.80;99.90;4.70;97932.00;;;;4632650;30;87024;-63
2022/04/11 09:48:35;;;;;;;8.80;7.87;;;3.90;99.90;4.70;97939.00;;;;4627768;30;87443;-64
2022/04/11 09:51:10;;;;;;;9.98;8.93;;;3.90;99.90;4.80;97941.00;;;;4633442;30;87468;-64
2022/04/11 09:53:36;;;;;;;9.68;8.48;;;4.00;99.90;4.70;97922.00;;;;4633008;30;87035;-64
2022/04/11 09:56:08;;;;;;;10.00;9.05;;;3.90;99.90;4.50;97902.00;;;;4632882;30;87166;-62
2022/04/11 09:58:36;;;;;;;;;;;3.80;99.90;4.60;97894.00;;;;4633363;30;88033;-63
2022/04/11 10:01:05;;;;;;;11.32;10.20;;;3.80;99.90;4.60;97908.00;;;;4633709;30;87967;-63
2022/04/11 10:03:31;;;;;;;11.63;10.50;;;3.80;99.90;4.60;97885.00;;;;4631199;30;88467;-63
2022/04/11 10:05:58;;;;;;;11.55;9.70;;;3.80;99.90;4.40;97894.00;;;;4632369;30;87096;-64
2022/04/11 10:08:26;;;;;;;11.27;10.18;;;3.70;99.90;4.60;97845.00;;;;4632440;30;87066;-62
2022/04/11 10:10:55;;;;;;;12.13;10.90;;;3.80;99.90;4.60;97880.00;;;;4632105;30;87812;-63
2022/04/11 10:13:22;;;;;;;12.48;11.27;;;3.90;99.90;4.70;97856.00;;;;4641921;30;88557;-64
2022/04/11 10:15:49;;;;;;;10.40;9.48;;;3.90;99.90;4.60;97854.00;;;;4632247;30;86526;-62
2022/04/11 10:18:26;;;;;;;11.85;9.95;;;3.90;99.90;4.70;97876.00;;;;4631456;30;87092;-63
2022/04/11 10:21:05;;;;;;;11.23;10.13;;;3.90;99.90;4.70;97877.00;;;;4631111;30;87658;-64
2022/04/11 10:23:50;;;;;;;12.05;10.95;;;3.90;99.90;4.60;97902.00;;;;4629250;30;88429;-63
2022/04/11 10:26:18;;;;;;;13.23;11.93;;;3.90;99.90;4.60;97890.00;;;;4626074;30;88231;-63
2022/04/11 10:28:53;;;;;;;12.43;11.23;;;3.80;99.90;4.70;97874.00;;;;4631308;30;88126;-64
2022/04/11 10:31:20;;;;;;;12.10;10.90;;;3.90;99.90;4.70;97890.00;;;;4630906;30;87762;-62
2022/04/11 10:33:55;;;;;;;11.90;10.73;;;4.00;99.90;4.80;97876.00;;;;4631079;30;87687;-63
2022/04/11 10:36:29;;;;;;;13.63;11.65;;;4.00;99.90;4.90;97866.00;;;;4630267;30;87116;-63
2022/04/11 10:39:14;;;;;;;12.52;11.40;;;4.10;99.90;5.10;97872.00;;;;4631112;30;88132;-62
2022/04/11 10:42:03;;;;;;;14.20;12.90;;;4.20;99.90;5.00;97872.00;;;;4629077;30;87024;-63
2022/04/11 10:44:46;;;;;;;19.02;13.90;;;4.20;99.90;5.10;97886.00;;;;4640462;30;87337;-63
2022/04/11 10:47:15;;;;;;;14.85;13.32;;;4.20;99.90;5.10;97889.00;;;;4631303;30;87415;-63
2022/04/11 10:49:50;;;;;;;16.75;15.25;;;4.20;99.90;4.90;97885.00;;;;4630435;30;88046;-64
2022/04/11 10:52:29;;;;;;;18.45;16.75;;;4.10;99.90;4.80;97887.00;;;;4634317;30;88969;-62
2022/04/11 10:55:09;;;;;;;18.83;16.45;;;4.10;99.90;4.70;97906.00;;;;4633750;30;88463;-62
2022/04/11 10:57:44;;;;;;;18.17;16.50;;;4.00;99.90;4.90;97919.00;;;;4634430;30;86977;-63
2022/04/11 11:00:19;;;;;;;18.15;16.25;;;4.00;99.90;4.80;97897.00;;;;4634365;30;87290;-63
2022/04/11 11:02:54;;;;;;;17.55;15.98;;;4.00;99.90;4.70;97919.00;;;;4634599;30;88267;-63
2022/04/11 11:05:47;;;;;;;17.27;15.57;;;3.90;99.90;4.60;97910.00;;;;4634350;30;87937;-64
2022/04/11 11:08:14;;;;;;;16.90;15.25;;;3.90;99.90;4.70;97911.00;;;;4648530;30;86463;-63
2022/04/11 11:11:03;;;;;;;18.40;16.65;;;3.90;99.90;4.70;97879.00;;;;4634192;30;87442;-62